sensor_id;sensor_type;location;lat;lon;timestamp;temperature;humidity
12602;DHT22;30282;16.436;99.370;2023-07-28T00:01:09;29.10;99.90
12602;DHT22;30282;16.436;99.370;2023-07-28T00:03:38;29.00;99.90
12602;DHT22;30282;16.436;99.370;2023-07-28T00:06:09;29.00;99.90
12602;DHT22;30282;16.436;99.370;2023-07-28T00:08:38;29.00;99.90
12602;DHT22;30282;16.436;99.370;2023-07-28T00:11:12;29.00;99.90
12602;DHT22;30282;16.436;99.370;2023-07-28T00:13:41;29.10;99.90
12602;DHT22;30282;16.436;99.370;2023-07-28T00:16:11;29.30;99.90
12602;DHT22;30282;16.436;99.370;2023-07-28T00:18:41;29.40;99.90
12602;DHT22;30282;16.436;99.370;2023-07-28T00:21:12;29.40;99.90
12602;DHT22;30282;16.436;99.370;2023-07-28T00:23:41;29.50;99.90
12602;DHT22;30282;16.436;99.370;2023-07-28T00:26:11;29.50;99.90
12602;DHT22;30282;16.436;99.370;2023-07-28T00:28:40;29.50;99.90
12602;DHT22;30282;16.436;99.370;2023-07-28T00:31:09;29.60;99.90
12602;DHT22;30282;16.436;99.370;2023-07-28T00:33:38;29.60;99.90
12602;DHT22;30282;16.436;99.370;2023-07-28T00:36:07;29.70;99.90
12602;DHT22;30282;16.436;99.370;2023-07-28T00:38:38;29.80;99.90
12602;DHT22;30282;16.436;99.370;2023-07-28T00:41:07;29.80;99.90
12602;DHT22;30282;16.436;99.370;2023-07-28T00:43:36;29.90;99.90
12602;DHT22;30282;16.436;99.370;2023-07-28T00:46:06;29.90;99.90
12602;DHT22;30282;16.436;99.370;2023-07-28T00:48:35;30.00;99.90
12602;DHT22;30282;16.436;99.370;2023-07-28T00:51:04;30.00;99.90
12602;DHT22;30282;16.436;99.370;2023-07-28T00:53:34;30.10;99.90
12602;DHT22;30282;16.436;99.370;2023-07-28T00:56:06;30.10;99.90
12602;DHT22;30282;16.436;99.370;2023-07-28T00:58:36;30.20;99.90
12602;DHT22;30282;16.436;99.370;2023-07-28T01:01:05;30.30;99.90
12602;DHT22;30282;16.436;99.370;2023-07-28T01:03:34;30.40;99.90
12602;DHT22;30282;16.436;99.370;2023-07-28T01:06:13;30.50;99.90
12602;DHT22;30282;16.436;99.370;2023-07-28T01:08:48;30.60;99.90
12602;DHT22;30282;16.436;99.370;2023-07-28T01:11:21;30.60;99.90
12602;DHT22;30282;16.436;99.370;2023-07-28T01:13:50;30.70;99.90
12602;DHT22;30282;16.436;99.370;2023-07-28T01:16:19;30.80;99.90
12602;DHT22;30282;16.436;99.370;2023-07-28T01:18:48;31.00;99.90
12602;DHT22;30282;16.436;99.370;2023-07-28T01:21:21;31.10;99.90
12602;DHT22;30282;16.436;99.370;2023-07-28T01:24:00;31.20;99.90
12602;DHT22;30282;16.436;99.370;2023-07-28T01:26:34;31.40;99.90
12602;DHT22;30282;16.436;99.370;2023-07-28T01:29:08;31.50;99.90
12602;DHT22;30282;16.436;99.370;2023-07-28T01:31:40;31.60;99.90
12602;DHT22;30282;16.436;99.370;2023-07-28T01:34:09;31.60;99.90
12602;DHT22;30282;16.436;99.370;2023-07-28T01:36:38;31.70;99.90
12602;DHT22;30282;16.436;99.370;2023-07-28T01:39:07;31.80;99.90
12602;DHT22;30282;16.436;99.370;2023-07-28T01:41:38;31.90;99.90
12602;DHT22;30282;16.436;99.370;2023-07-28T01:44:10;32.00;99.90
12602;DHT22;30282;16.436;99.370;2023-07-28T01:46:39;32.10;99.90
12602;DHT22;30282;16.436;99.370;2023-07-28T01:49:19;32.10;99.90
12602;DHT22;30282;16.436;99.370;2023-07-28T01:51:51;32.20;99.90
12602;DHT22;30282;16.436;99.370;2023-07-28T01:54:28;32.30;99.90
12602;DHT22;30282;16.436;99.370;2023-07-28T01:56:59;32.40;99.90
12602;DHT22;30282;16.436;99.370;2023-07-28T01:59:28;32.50;99.90
12602;DHT22;30282;16.436;99.370;2023-07-28T02:01:57;32.50;99.90
12602;DHT22;30282;16.436;99.370;2023-07-28T02:04:26;32.60;99.90
12602;DHT22;30282;16.436;99.370;2023-07-28T02:06:55;32.60;99.90
12602;DHT22;30282;16.436;99.370;2023-07-28T02:09:27;32.60;99.90
12602;DHT22;30282;16.436;99.370;2023-07-28T02:12:01;32.70;99.90
12602;DHT22;30282;16.436;99.370;2023-07-28T02:14:30;32.80;99.90
12602;DHT22;30282;16.436;99.370;2023-07-28T02:16:59;32.80;99.90
12602;DHT22;30282;16.436;99.370;2023-07-28T02:19:28;32.90;99.90
12602;DHT22;30282;16.436;99.370;2023-07-28T02:21:58;33.00;99.90
12602;DHT22;30282;16.436;99.370;2023-07-28T02:24:30;33.10;99.90
12602;DHT22;30282;16.436;99.370;2023-07-28T02:27:01;33.20;99.90
12602;DHT22;30282;16.436;99.370;2023-07-28T02:29:30;33.20;99.90
12602;DHT22;30282;16.436;99.370;2023-07-28T02:31:59;33.30;99.90
12602;DHT22;30282;16.436;99.370;2023-07-28T02:37:25;33.30;99.90
12602;DHT22;30282;16.436;99.370;2023-07-28T02:39:54;33.30;99.90
12602;DHT22;30282;16.436;99.370;2023-07-28T02:42:25;33.30;99.90
12602;DHT22;30282;16.436;99.370;2023-07-28T02:44:54;33.40;99.90
12602;DHT22;30282;16.436;99.370;2023-07-28T02:47:24;33.50;99.90
12602;DHT22;30282;16.436;99.370;2023-07-28T02:49:53;33.50;99.90
12602;DHT22;30282;16.436;99.370;2023-07-28T02:52:22;33.60;99.90
12602;DHT22;30282;16.436;99.370;2023-07-28T02:55:10;33.70;99.90
12602;DHT22;30282;16.436;99.370;2023-07-28T02:57:41;33.70;99.90
12602;DHT22;30282;16.436;99.370;2023-07-28T03:00:14;33.80;99.90
12602;DHT22;30282;16.436;99.370;2023-07-28T03:02:43;33.80;99.90
12602;DHT22;30282;16.436;99.370;2023-07-28T03:05:12;33.90;99.90
12602;DHT22;30282;16.436;99.370;2023-07-28T03:07:41;34.00;99.90
12602;DHT22;30282;16.436;99.370;2023-07-28T03:10:11;34.00;99.90
12602;DHT22;30282;16.436;99.370;2023-07-28T03:12:45;34.00;99.90
12602;DHT22;30282;16.436;99.370;2023-07-28T03:15:20;34.00;99.90
12602;DHT22;30282;16.436;99.370;2023-07-28T03:17:50;34.00;99.90
12602;DHT22;30282;16.436;99.370;2023-07-28T03:20:20;33.90;99.90
12602;DHT22;30282;16.436;99.370;2023-07-28T03:22:49;33.90;99.90
12602;DHT22;30282;16.436;99.370;2023-07-28T03:25:19;33.90;99.90
12602;DHT22;30282;16.436;99.370;2023-07-28T03:27:50;33.90;99.90
12602;DHT22;30282;16.436;99.370;2023-07-28T03:30:25;33.90;99.90
12602;DHT22;30282;16.436;99.370;2023-07-28T03:33:11;33.90;99.90
12602;DHT22;30282;16.436;99.370;2023-07-28T03:35:40;34.00;99.90
12602;DHT22;30282;16.436;99.370;2023-07-28T03:38:12;33.90;99.90
12602;DHT22;30282;16.436;99.370;2023-07-28T03:40:41;33.80;99.90
12602;DHT22;30282;16.436;99.370;2023-07-28T03:43:13;33.70;99.90
12602;DHT22;30282;16.436;99.370;2023-07-28T03:45:42;33.70;99.90
12602;DHT22;30282;16.436;99.370;2023-07-28T03:48:11;33.60;99.90
12602;DHT22;30282;16.436;99.370;2023-07-28T03:50:43;33.60;99.90
12602;DHT22;30282;16.436;99.370;2023-07-28T03:53:13;33.50;99.90
12602;DHT22;30282;16.436;99.370;2023-07-28T03:55:43;33.50;99.90
12602;DHT22;30282;16.436;99.370;2023-07-28T03:58:13;33.50;99.90
12602;DHT22;30282;16.436;99.370;2023-07-28T04:00:43;33.50;99.90
12602;DHT22;30282;16.436;99.370;2023-07-28T04:03:14;33.50;99.90
12602;DHT22;30282;16.436;99.370;2023-07-28T04:05:43;33.50;99.90
12602;DHT22;30282;16.436;99.370;2023-07-28T04:08:12;33.50;99.90
12602;DHT22;30282;16.436;99.370;2023-07-28T04:10:41;33.60;99.90
12602;DHT22;30282;16.436;99.370;2023-07-28T04:13:22;33.50;99.90
12602;DHT22;30282;16.436;99.370;2023-07-28T04:15:58;33.60;99.90
12602;DHT22;30282;16.436;99.370;2023-07-28T04:18:27;33.60;99.90
12602;DHT22;30282;16.436;99.370;2023-07-28T04:20:56;33.70;99.90
12602;DHT22;30282;16.436;99.370;2023-07-28T04:23:26;33.70;99.90
12602;DHT22;30282;16.436;99.370;2023-07-28T04:26:03;33.80;99.90
12602;DHT22;30282;16.436;99.370;2023-07-28T04:28:34;33.90;99.90
12602;DHT22;30282;16.436;99.370;2023-07-28T04:31:16;34.00;99.90
12602;DHT22;30282;16.436;99.370;2023-07-28T04:33:45;34.00;99.90
12602;DHT22;30282;16.436;99.370;2023-07-28T04:36:16;34.10;99.90
12602;DHT22;30282;16.436;99.370;2023-07-28T04:38:45;34.10;99.90
12602;DHT22;30282;16.436;99.370;2023-07-28T04:41:14;34.10;99.90
12602;DHT22;30282;16.436;99.370;2023-07-28T04:43:45;34.20;99.90
12602;DHT22;30282;16.436;99.370;2023-07-28T04:46:14;34.10;99.90
12602;DHT22;30282;16.436;99.370;2023-07-28T04:48:43;34.10;99.90
12602;DHT22;30282;16.436;99.370;2023-07-28T04:51:12;34.20;99.90
12602;DHT22;30282;16.436;99.370;2023-07-28T04:53:41;34.20;99.90
12602;DHT22;30282;16.436;99.370;2023-07-28T04:56:10;34.40;99.90
12602;DHT22;30282;16.436;99.370;2023-07-28T04:58:40;34.50;99.90
12602;DHT22;30282;16.436;99.370;2023-07-28T05:01:12;34.70;99.90
12602;DHT22;30282;16.436;99.370;2023-07-28T05:03:42;34.60;99.90
12602;DHT22;30282;16.436;99.370;2023-07-28T05:06:11;34.60;99.90
12602;DHT22;30282;16.436;99.370;2023-07-28T05:08:41;34.60;99.90
12602;DHT22;30282;16.436;99.370;2023-07-28T05:11:10;34.70;99.90
12602;DHT22;30282;16.436;99.370;2023-07-28T05:13:43;34.60;99.90
12602;DHT22;30282;16.436;99.370;2023-07-28T05:16:17;34.70;99.90
12602;DHT22;30282;16.436;99.370;2023-07-28T05:18:54;34.70;99.90
12602;DHT22;30282;16.436;99.370;2023-07-28T05:21:24;34.70;99.90
12602;DHT22;30282;16.436;99.370;2023-07-28T05:24:06;34.70;99.90
12602;DHT22;30282;16.436;99.370;2023-07-28T05:26:55;34.60;99.90
12602;DHT22;30282;16.436;99.370;2023-07-28T05:29:42;34.70;99.90
12602;DHT22;30282;16.436;99.370;2023-07-28T05:32:13;34.60;99.90
12602;DHT22;30282;16.436;99.370;2023-07-28T05:34:43;34.70;99.90
12602;DHT22;30282;16.436;99.370;2023-07-28T05:37:12;34.70;99.90
12602;DHT22;30282;16.436;99.370;2023-07-28T05:43:03;34.70;99.90
12602;DHT22;30282;16.436;99.370;2023-07-28T05:45:32;34.70;99.90
12602;DHT22;30282;16.436;99.370;2023-07-28T05:48:03;34.80;99.90
12602;DHT22;30282;16.436;99.370;2023-07-28T05:50:32;34.80;99.90
12602;DHT22;30282;16.436;99.370;2023-07-28T05:53:06;34.80;99.90
12602;DHT22;30282;16.436;99.370;2023-07-28T05:55:35;35.10;99.90
12602;DHT22;30282;16.436;99.370;2023-07-28T05:58:07;35.10;99.90
12602;DHT22;30282;16.436;99.370;2023-07-28T06:00:38;35.20;99.90
12602;DHT22;30282;16.436;99.370;2023-07-28T06:03:10;35.20;99.90
12602;DHT22;30282;16.436;99.370;2023-07-28T06:05:40;35.20;99.90
12602;DHT22;30282;16.436;99.370;2023-07-28T06:08:12;35.20;99.90
12602;DHT22;30282;16.436;99.370;2023-07-28T06:10:41;35.30;99.90
12602;DHT22;30282;16.436;99.370;2023-07-28T06:13:10;35.20;99.90
12602;DHT22;30282;16.436;99.370;2023-07-28T06:15:41;35.30;99.90
12602;DHT22;30282;16.436;99.370;2023-07-28T06:18:12;35.20;99.90
12602;DHT22;30282;16.436;99.370;2023-07-28T06:20:52;35.00;99.90
12602;DHT22;30282;16.436;99.370;2023-07-28T06:23:23;34.90;99.90
12602;DHT22;30282;16.436;99.370;2023-07-28T06:25:58;34.90;99.90
12602;DHT22;30282;16.436;99.370;2023-07-28T06:28:28;34.90;99.90
12602;DHT22;30282;16.436;99.370;2023-07-28T06:31:00;34.90;99.90
12602;DHT22;30282;16.436;99.370;2023-07-28T06:33:31;34.90;99.90
12602;DHT22;30282;16.436;99.370;2023-07-28T06:36:00;34.80;99.90
12602;DHT22;30282;16.436;99.370;2023-07-28T06:38:32;34.80;99.90
12602;DHT22;30282;16.436;99.370;2023-07-28T06:41:05;34.70;99.90
12602;DHT22;30282;16.436;99.370;2023-07-28T06:43:35;34.70;99.90
12602;DHT22;30282;16.436;99.370;2023-07-28T06:46:04;34.60;99.90
12602;DHT22;30282;16.436;99.370;2023-07-28T06:48:35;34.50;99.90
12602;DHT22;30282;16.436;99.370;2023-07-28T06:51:04;34.50;99.90
12602;DHT22;30282;16.436;99.370;2023-07-28T06:53:33;34.40;99.90
12602;DHT22;30282;16.436;99.370;2023-07-28T06:56:05;34.40;99.90
12602;DHT22;30282;16.436;99.370;2023-07-28T06:58:35;34.40;99.90
12602;DHT22;30282;16.436;99.370;2023-07-28T07:01:04;34.40;99.90
12602;DHT22;30282;16.436;99.370;2023-07-28T07:03:34;34.40;99.90
12602;DHT22;30282;16.436;99.370;2023-07-28T07:06:03;34.50;99.90
12602;DHT22;30282;16.436;99.370;2023-07-28T07:11:50;34.50;99.90
12602;DHT22;30282;16.436;99.370;2023-07-28T07:14:22;34.50;99.90
12602;DHT22;30282;16.436;99.370;2023-07-28T07:16:55;34.50;99.90
12602;DHT22;30282;16.436;99.370;2023-07-28T07:19:27;34.60;99.90
12602;DHT22;30282;16.436;99.370;2023-07-28T07:21:56;34.50;99.90
12602;DHT22;30282;16.436;99.370;2023-07-28T07:24:25;34.50;99.90
12602;DHT22;30282;16.436;99.370;2023-07-28T07:26:54;34.50;99.90
12602;DHT22;30282;16.436;99.370;2023-07-28T07:29:24;34.50;99.90
12602;DHT22;30282;16.436;99.370;2023-07-28T07:31:53;34.50;99.90
12602;DHT22;30282;16.436;99.370;2023-07-28T07:34:25;34.30;99.90
12602;DHT22;30282;16.436;99.370;2023-07-28T07:36:54;34.20;99.90
12602;DHT22;30282;16.436;99.370;2023-07-28T07:39:24;34.10;99.90
12602;DHT22;30282;16.436;99.370;2023-07-28T07:41:53;34.10;99.90
12602;DHT22;30282;16.436;99.370;2023-07-28T07:44:23;34.20;99.90
12602;DHT22;30282;16.436;99.370;2023-07-28T07:46:52;34.20;99.90
12602;DHT22;30282;16.436;99.370;2023-07-28T07:49:26;34.20;99.90
12602;DHT22;30282;16.436;99.370;2023-07-28T07:51:55;34.00;99.90
12602;DHT22;30282;16.436;99.370;2023-07-28T07:54:32;33.90;99.90
12602;DHT22;30282;16.436;99.370;2023-07-28T07:57:01;33.90;99.90
12602;DHT22;30282;16.436;99.370;2023-07-28T07:59:30;33.70;99.90
12602;DHT22;30282;16.436;99.370;2023-07-28T08:02:09;33.50;99.90
12602;DHT22;30282;16.436;99.370;2023-07-28T08:04:40;33.30;99.90
12602;DHT22;30282;16.436;99.370;2023-07-28T08:07:10;33.10;99.90
12602;DHT22;30282;16.436;99.370;2023-07-28T08:09:41;33.00;99.90
12602;DHT22;30282;16.436;99.370;2023-07-28T08:12:10;32.90;99.90
12602;DHT22;30282;16.436;99.370;2023-07-28T08:14:40;33.00;99.90
12602;DHT22;30282;16.436;99.370;2023-07-28T08:17:09;33.20;99.90
12602;DHT22;30282;16.436;99.370;2023-07-28T08:19:40;33.40;99.90
12602;DHT22;30282;16.436;99.370;2023-07-28T08:22:11;33.60;99.90
12602;DHT22;30282;16.436;99.370;2023-07-28T08:24:40;33.70;99.90
12602;DHT22;30282;16.436;99.370;2023-07-28T08:27:09;33.80;99.90
12602;DHT22;30282;16.436;99.370;2023-07-28T08:29:41;33.80;99.90
12602;DHT22;30282;16.436;99.370;2023-07-28T08:32:10;33.90;99.90
12602;DHT22;30282;16.436;99.370;2023-07-28T08:34:41;33.90;99.90
12602;DHT22;30282;16.436;99.370;2023-07-28T08:37:10;33.90;99.90
12602;DHT22;30282;16.436;99.370;2023-07-28T08:39:40;33.80;99.90
12602;DHT22;30282;16.436;99.370;2023-07-28T08:42:11;33.80;99.90
12602;DHT22;30282;16.436;99.370;2023-07-28T08:44:40;33.70;99.90
12602;DHT22;30282;16.436;99.370;2023-07-28T08:47:12;33.70;99.90
12602;DHT22;30282;16.436;99.370;2023-07-28T08:49:43;33.70;99.90
12602;DHT22;30282;16.436;99.370;2023-07-28T08:52:16;33.70;99.90
12602;DHT22;30282;16.436;99.370;2023-07-28T08:54:45;33.70;99.90
12602;DHT22;30282;16.436;99.370;2023-07-28T08:57:15;33.70;99.90
12602;DHT22;30282;16.436;99.370;2023-07-28T08:59:44;33.70;99.90
12602;DHT22;30282;16.436;99.370;2023-07-28T09:02:15;33.70;99.90
12602;DHT22;30282;16.436;99.370;2023-07-28T09:04:48;33.70;99.90
12602;DHT22;30282;16.436;99.370;2023-07-28T09:07:20;33.70;99.90
12602;DHT22;30282;16.436;99.370;2023-07-28T09:09:49;33.70;99.90
12602;DHT22;30282;16.436;99.370;2023-07-28T09:12:27;33.80;99.90
12602;DHT22;30282;16.436;99.370;2023-07-28T09:14:57;33.70;99.90
12602;DHT22;30282;16.436;99.370;2023-07-28T09:17:26;33.80;99.90
12602;DHT22;30282;16.436;99.370;2023-07-28T09:19:57;33.80;99.90
12602;DHT22;30282;16.436;99.370;2023-07-28T09:22:26;33.70;99.90
12602;DHT22;30282;16.436;99.370;2023-07-28T09:27:55;33.70;99.90
12602;DHT22;30282;16.436;99.370;2023-07-28T09:30:25;33.80;99.90
12602;DHT22;30282;16.436;99.370;2023-07-28T09:32:55;33.80;99.90
12602;DHT22;30282;16.436;99.370;2023-07-28T09:35:25;33.80;99.90
12602;DHT22;30282;16.436;99.370;2023-07-28T09:37:55;33.80;99.90
12602;DHT22;30282;16.436;99.370;2023-07-28T09:40:24;33.80;99.90
12602;DHT22;30282;16.436;99.370;2023-07-28T09:42:54;33.80;99.90
12602;DHT22;30282;16.436;99.370;2023-07-28T09:45:35;33.80;99.90
12602;DHT22;30282;16.436;99.370;2023-07-28T09:48:22;33.70;99.90
12602;DHT22;30282;16.436;99.370;2023-07-28T09:50:58;33.70;99.90
12602;DHT22;30282;16.436;99.370;2023-07-28T09:53:29;33.60;99.90
12602;DHT22;30282;16.436;99.370;2023-07-28T09:55:59;33.50;99.90
12602;DHT22;30282;16.436;99.370;2023-07-28T09:58:33;33.50;99.90
12602;DHT22;30282;16.436;99.370;2023-07-28T10:01:05;33.60;99.90
12602;DHT22;30282;16.436;99.370;2023-07-28T10:03:35;33.50;99.90
12602;DHT22;30282;16.436;99.370;2023-07-28T10:06:06;33.50;99.90
12602;DHT22;30282;16.436;99.370;2023-07-28T10:08:36;33.40;99.90
12602;DHT22;30282;16.436;99.370;2023-07-28T10:11:06;33.40;99.90
12602;DHT22;30282;16.436;99.370;2023-07-28T10:13:41;33.40;99.90
12602;DHT22;30282;16.436;99.370;2023-07-28T10:19:05;33.30;99.90
12602;DHT22;30282;16.436;99.370;2023-07-28T10:21:40;33.20;99.90
12602;DHT22;30282;16.436;99.370;2023-07-28T10:24:09;33.00;99.90
12602;DHT22;30282;16.436;99.370;2023-07-28T10:26:39;32.90;99.90
12602;DHT22;30282;16.436;99.370;2023-07-28T10:29:10;32.90;99.90
12602;DHT22;30282;16.436;99.370;2023-07-28T10:31:50;32.80;99.90
12602;DHT22;30282;16.436;99.370;2023-07-28T10:34:21;32.70;99.90
12602;DHT22;30282;16.436;99.370;2023-07-28T10:36:59;32.70;99.90
12602;DHT22;30282;16.436;99.370;2023-07-28T10:39:28;32.60;99.90
12602;DHT22;30282;16.436;99.370;2023-07-28T10:42:03;32.70;99.90
12602;DHT22;30282;16.436;99.370;2023-07-28T10:44:33;32.80;99.90
12602;DHT22;30282;16.436;99.370;2023-07-28T10:47:04;32.80;99.90
12602;DHT22;30282;16.436;99.370;2023-07-28T10:49:36;32.80;99.90
12602;DHT22;30282;16.436;99.370;2023-07-28T10:52:07;32.80;99.90
12602;DHT22;30282;16.436;99.370;2023-07-28T10:54:36;32.80;99.90
12602;DHT22;30282;16.436;99.370;2023-07-28T10:57:06;32.80;99.90
12602;DHT22;30282;16.436;99.370;2023-07-28T10:59:38;32.70;99.90
12602;DHT22;30282;16.436;99.370;2023-07-28T11:02:07;32.70;99.90
12602;DHT22;30282;16.436;99.370;2023-07-28T11:04:36;32.60;99.90
12602;DHT22;30282;16.436;99.370;2023-07-28T11:07:07;32.60;99.90
12602;DHT22;30282;16.436;99.370;2023-07-28T11:09:36;32.60;99.90
12602;DHT22;30282;16.436;99.370;2023-07-28T11:12:09;32.50;99.90
12602;DHT22;30282;16.436;99.370;2023-07-28T11:14:39;32.50;99.90
12602;DHT22;30282;16.436;99.370;2023-07-28T11:17:11;32.50;99.90
12602;DHT22;30282;16.436;99.370;2023-07-28T11:19:40;32.50;99.90
12602;DHT22;30282;16.436;99.370;2023-07-28T11:22:11;32.40;99.90
12602;DHT22;30282;16.436;99.370;2023-07-28T11:24:45;32.40;99.90
12602;DHT22;30282;16.436;99.370;2023-07-28T11:27:14;32.40;99.90
12602;DHT22;30282;16.436;99.370;2023-07-28T11:29:44;32.40;99.90
12602;DHT22;30282;16.436;99.370;2023-07-28T11:32:16;32.40;99.90
12602;DHT22;30282;16.436;99.370;2023-07-28T11:34:49;32.40;99.90
12602;DHT22;30282;16.436;99.370;2023-07-28T11:37:20;32.40;99.90
12602;DHT22;30282;16.436;99.370;2023-07-28T11:39:49;32.30;99.90
12602;DHT22;30282;16.436;99.370;2023-07-28T11:42:20;32.30;99.90
12602;DHT22;30282;16.436;99.370;2023-07-28T11:44:49;32.20;99.90
12602;DHT22;30282;16.436;99.370;2023-07-28T11:47:18;32.10;99.90
12602;DHT22;30282;16.436;99.370;2023-07-28T11:49:48;32.00;99.90
12602;DHT22;30282;16.436;99.370;2023-07-28T11:52:22;31.90;99.90
12602;DHT22;30282;16.436;99.370;2023-07-28T11:54:52;31.90;99.90
12602;DHT22;30282;16.436;99.370;2023-07-28T11:57:22;31.80;99.90
12602;DHT22;30282;16.436;99.370;2023-07-28T11:59:51;31.70;99.90
12602;DHT22;30282;16.436;99.370;2023-07-28T12:02:26;31.70;99.90
12602;DHT22;30282;16.436;99.370;2023-07-28T12:04:55;31.70;99.90
12602;DHT22;30282;16.436;99.370;2023-07-28T12:07:30;31.70;99.90
12602;DHT22;30282;16.436;99.370;2023-07-28T12:10:03;31.70;99.90
12602;DHT22;30282;16.436;99.370;2023-07-28T12:12:41;31.70;99.90
12602;DHT22;30282;16.436;99.370;2023-07-28T12:15:21;31.70;99.90
12602;DHT22;30282;16.436;99.370;2023-07-28T12:18:08;31.70;99.90
12602;DHT22;30282;16.436;99.370;2023-07-28T12:20:39;31.70;99.90
12602;DHT22;30282;16.436;99.370;2023-07-28T12:23:10;31.60;99.90
12602;DHT22;30282;16.436;99.370;2023-07-28T12:25:40;31.60;99.90
12602;DHT22;30282;16.436;99.370;2023-07-28T12:28:09;31.50;99.90
12602;DHT22;30282;16.436;99.370;2023-07-28T12:30:38;31.50;99.90
12602;DHT22;30282;16.436;99.370;2023-07-28T12:33:07;31.40;99.90
12602;DHT22;30282;16.436;99.370;2023-07-28T12:35:36;31.40;99.90
12602;DHT22;30282;16.436;99.370;2023-07-28T12:38:06;31.40;99.90
12602;DHT22;30282;16.436;99.370;2023-07-28T12:40:37;31.40;99.90
12602;DHT22;30282;16.436;99.370;2023-07-28T12:43:06;31.30;99.90
12602;DHT22;30282;16.436;99.370;2023-07-28T12:45:35;31.30;99.90
12602;DHT22;30282;16.436;99.370;2023-07-28T12:48:04;31.20;99.90
12602;DHT22;30282;16.436;99.370;2023-07-28T12:50:33;31.10;99.90
12602;DHT22;30282;16.436;99.370;2023-07-28T12:53:03;31.10;99.90
12602;DHT22;30282;16.436;99.370;2023-07-28T12:55:36;31.10;99.90
12602;DHT22;30282;16.436;99.370;2023-07-28T12:58:05;31.10;99.90
12602;DHT22;30282;16.436;99.370;2023-07-28T13:00:34;31.10;99.90
12602;DHT22;30282;16.436;99.370;2023-07-28T13:03:06;31.10;99.90
12602;DHT22;30282;16.436;99.370;2023-07-28T13:05:35;31.20;99.90
12602;DHT22;30282;16.436;99.370;2023-07-28T13:08:06;31.30;99.90
12602;DHT22;30282;16.436;99.370;2023-07-28T13:10:49;31.30;99.90
12602;DHT22;30282;16.436;99.370;2023-07-28T13:13:19;31.20;99.90
12602;DHT22;30282;16.436;99.370;2023-07-28T13:15:49;31.10;99.90
12602;DHT22;30282;16.436;99.370;2023-07-28T13:18:18;31.10;99.90
12602;DHT22;30282;16.436;99.370;2023-07-28T13:20:47;31.10;99.90
12602;DHT22;30282;16.436;99.370;2023-07-28T13:23:19;31.00;99.90
12602;DHT22;30282;16.436;99.370;2023-07-28T13:25:50;30.80;99.90
12602;DHT22;30282;16.436;99.370;2023-07-28T13:28:20;30.70;99.90
12602;DHT22;30282;16.436;99.370;2023-07-28T13:30:49;30.70;99.90
12602;DHT22;30282;16.436;99.370;2023-07-28T13:33:23;30.70;99.90
12602;DHT22;30282;16.436;99.370;2023-07-28T13:36:00;30.70;99.90
12602;DHT22;30282;16.436;99.370;2023-07-28T13:38:36;30.60;99.90
12602;DHT22;30282;16.436;99.370;2023-07-28T13:41:10;30.50;99.90
12602;DHT22;30282;16.436;99.370;2023-07-28T13:43:39;30.60;99.90
12602;DHT22;30282;16.436;99.370;2023-07-28T13:46:08;30.60;99.90
12602;DHT22;30282;16.436;99.370;2023-07-28T13:48:38;30.50;99.90
12602;DHT22;30282;16.436;99.370;2023-07-28T13:51:10;30.50;99.90
12602;DHT22;30282;16.436;99.370;2023-07-28T13:53:39;30.60;99.90
12602;DHT22;30282;16.436;99.370;2023-07-28T13:56:10;30.60;99.90
12602;DHT22;30282;16.436;99.370;2023-07-28T13:58:39;30.60;99.90
12602;DHT22;30282;16.436;99.370;2023-07-28T14:01:08;30.60;99.90
12602;DHT22;30282;16.436;99.370;2023-07-28T14:03:43;30.60;99.90
12602;DHT22;30282;16.436;99.370;2023-07-28T14:06:12;30.60;99.90
12602;DHT22;30282;16.436;99.370;2023-07-28T14:08:41;30.60;99.90
12602;DHT22;30282;16.436;99.370;2023-07-28T14:11:15;30.60;99.90
12602;DHT22;30282;16.436;99.370;2023-07-28T14:14:04;30.60;99.90
12602;DHT22;30282;16.436;99.370;2023-07-28T14:16:40;30.60;99.90
12602;DHT22;30282;16.436;99.370;2023-07-28T14:19:09;30.50;99.90
12602;DHT22;30282;16.436;99.370;2023-07-28T14:21:39;30.60;99.90
12602;DHT22;30282;16.436;99.370;2023-07-28T14:24:08;30.60;99.90
12602;DHT22;30282;16.436;99.370;2023-07-28T14:26:39;30.60;99.90
12602;DHT22;30282;16.436;99.370;2023-07-28T14:29:08;30.60;99.90
12602;DHT22;30282;16.436;99.370;2023-07-28T14:31:37;30.60;99.90
12602;DHT22;30282;16.436;99.370;2023-07-28T14:34:06;30.50;99.90
12602;DHT22;30282;16.436;99.370;2023-07-28T14:36:35;30.40;99.90
12602;DHT22;30282;16.436;99.370;2023-07-28T14:39:05;30.40;99.90
12602;DHT22;30282;16.436;99.370;2023-07-28T14:41:45;30.30;99.90
12602;DHT22;30282;16.436;99.370;2023-07-28T14:44:14;30.30;99.90
12602;DHT22;30282;16.436;99.370;2023-07-28T14:46:51;30.30;99.90
12602;DHT22;30282;16.436;99.370;2023-07-28T14:49:21;30.30;99.90
12602;DHT22;30282;16.436;99.370;2023-07-28T14:51:50;30.30;99.90
12602;DHT22;30282;16.436;99.370;2023-07-28T14:54:19;30.30;99.90
12602;DHT22;30282;16.436;99.370;2023-07-28T14:56:50;30.20;99.90
12602;DHT22;30282;16.436;99.370;2023-07-28T14:59:19;30.20;99.90
12602;DHT22;30282;16.436;99.370;2023-07-28T15:01:48;30.20;99.90
12602;DHT22;30282;16.436;99.370;2023-07-28T15:04:17;30.10;99.90
12602;DHT22;30282;16.436;99.370;2023-07-28T15:06:46;30.00;99.90
12602;DHT22;30282;16.436;99.370;2023-07-28T15:09:16;30.10;99.90
12602;DHT22;30282;16.436;99.370;2023-07-28T15:11:51;30.20;99.90
12602;DHT22;30282;16.436;99.370;2023-07-28T15:14:21;30.20;99.90
12602;DHT22;30282;16.436;99.370;2023-07-28T15:16:50;30.30;99.90
12602;DHT22;30282;16.436;99.370;2023-07-28T15:19:19;30.20;99.90
12602;DHT22;30282;16.436;99.370;2023-07-28T15:21:48;30.20;99.90
12602;DHT22;30282;16.436;99.370;2023-07-28T15:24:19;30.10;99.90
12602;DHT22;30282;16.436;99.370;2023-07-28T15:26:50;30.00;99.90
12602;DHT22;30282;16.436;99.370;2023-07-28T15:29:20;30.00;99.90
12602;DHT22;30282;16.436;99.370;2023-07-28T15:31:49;30.00;99.90
12602;DHT22;30282;16.436;99.370;2023-07-28T15:34:23;30.00;99.90
12602;DHT22;30282;16.436;99.370;2023-07-28T15:36:54;30.00;99.90
12602;DHT22;30282;16.436;99.370;2023-07-28T15:39:24;30.00;99.90
12602;DHT22;30282;16.436;99.370;2023-07-28T15:41:58;29.80;99.90
12602;DHT22;30282;16.436;99.370;2023-07-28T15:44:27;29.70;99.90
12602;DHT22;30282;16.436;99.370;2023-07-28T15:46:56;29.70;99.90
12602;DHT22;30282;16.436;99.370;2023-07-28T15:49:28;29.60;99.90
12602;DHT22;30282;16.436;99.370;2023-07-28T15:51:57;29.60;99.90
12602;DHT22;30282;16.436;99.370;2023-07-28T15:54:26;29.70;99.90